createdAt,value
2015-09-10T00:00:01.107Z,99.99
2015-09-10T00:00:13.514Z,99.99
2015-09-10T00:00:25.922Z,99.99
2015-09-10T00:00:37.656Z,99.99
2015-09-10T00:00:50.094Z,99.99
2015-09-10T00:01:02.375Z,99.99
2015-09-10T00:01:14.812Z,99.99
2015-09-10T00:01:27.237Z,99.99
2015-09-10T00:01:39.659Z,99.99
2015-09-10T00:01:52.097Z,99.99
2015-09-10T00:02:04.487Z,99.99
2015-09-10T00:02:16.894Z,99.99
2015-09-10T00:02:29.301Z,99.99
2015-09-10T00:02:41.723Z,99.99
2015-09-10T00:02:54.129Z,99.99
2015-09-10T00:03:06.535Z,99.99
2015-09-10T00:03:18.926Z,99.99
2015-09-10T00:03:31.318Z,99.99
2015-09-10T00:03:43.725Z,99.99
2015-09-10T00:03:56.147Z,99.99
2015-09-10T00:04:08.584Z,99.99
2015-09-10T00:04:21.115Z,99.99
2015-09-10T00:04:33.539Z,99.99
2015-09-10T00:04:45.961Z,99.99
2015-09-10T00:04:58.399Z,99.99
2015-09-10T00:05:10.820Z,99.99
2015-09-10T00:05:22.539Z,99.99
2015-09-10T00:05:34.979Z,99.99
2015-09-10T00:05:47.401Z,99.99
2015-09-10T00:05:59.791Z,99.99
2015-09-10T00:06:12.197Z,99.99
2015-09-10T00:06:24.604Z,99.99
2015-09-10T00:06:36.996Z,99.99
2015-09-10T00:06:49.403Z,99.99
2015-09-10T00:07:01.809Z,99.99
2015-09-10T00:07:14.199Z,99.99
2015-09-10T00:07:26.608Z,99.99
2015-09-10T00:07:38.295Z,99.99
2015-09-10T00:07:50.795Z,99.99
2015-09-10T00:08:03.311Z,99.99
2015-09-10T00:08:15.733Z,99.99
2015-09-10T00:08:28.157Z,99.99
2015-09-10T00:08:40.578Z,99.99
2015-09-10T00:08:53.000Z,99.99
2015-09-10T00:09:05.407Z,99.99
2015-09-10T00:09:17.797Z,99.99
2015-09-10T00:09:30.284Z,99.99
2015-09-10T00:09:42.737Z,99.99
2015-09-10T00:09:54.424Z,99.99
2015-09-10T00:10:06.674Z,99.99
2015-09-10T00:10:19.080Z,99.99
2015-09-10T00:10:31.489Z,99.99
2015-09-10T00:10:43.895Z,99.99
2015-09-10T00:10:56.379Z,99.99
2015-09-10T00:11:08.786Z,99.99
2015-09-10T00:11:21.207Z,99.99
2015-09-10T00:11:33.663Z,99.99
2015-09-10T00:11:46.084Z,99.99
2015-09-10T00:11:58.506Z,99.99
2015-09-10T00:12:10.928Z,99.99
2015-09-10T00:12:23.350Z,99.99
2015-09-10T00:12:35.790Z,99.99
2015-09-10T00:12:48.196Z,99.99
2015-09-10T00:13:00.649Z,99.99
2015-09-10T00:13:13.040Z,99.99
2015-09-10T00:13:25.446Z,99.99
2015-09-10T00:13:37.838Z,99.99
2015-09-10T00:13:50.245Z,99.99
2015-09-10T00:14:02.651Z,99.99
2015-09-10T00:14:15.042Z,99.99
2015-09-10T00:14:27.432Z,99.99
2015-09-10T00:14:39.855Z,99.99
2015-09-10T00:14:52.246Z,99.99
2015-09-10T00:15:04.714Z,99.99
2015-09-10T00:15:17.418Z,99.99
2015-09-10T00:15:29.839Z,99.99
2015-09-10T00:15:42.263Z,99.99
2015-09-10T00:15:54.763Z,99.99
2015-09-10T00:16:07.154Z,99.99
2015-09-10T00:16:19.545Z,99.99
2015-09-10T00:16:31.966Z,99.99
2015-09-10T00:16:44.376Z,99.99
2015-09-10T00:16:56.766Z,99.99
2015-09-10T00:17:09.157Z,99.99
2015-09-10T00:17:21.563Z,99.99
2015-09-10T00:17:34.063Z,99.99
2015-09-10T00:17:46.470Z,99.99
2015-09-10T00:17:58.877Z,99.99
2015-09-10T00:18:11.283Z,99.99
2015-09-10T00:18:23.689Z,99.99
2015-09-10T00:18:36.111Z,99.99
2015-09-10T00:18:48.583Z,99.99
2015-09-10T00:19:01.067Z,99.99
2015-09-10T00:19:13.458Z,99.99
2015-09-10T00:19:25.864Z,99.99
2015-09-10T00:19:38.255Z,99.99
2015-09-10T00:19:50.834Z,99.99
2015-09-10T00:20:03.224Z,99.99
2015-09-10T00:20:15.631Z,99.99
2015-09-10T00:20:28.021Z,99.99
2015-09-10T00:20:40.428Z,99.99
2015-09-10T00:20:52.836Z,99.99
2015-09-10T00:21:05.289Z,99.99
2015-09-10T00:21:17.773Z,99.99
2015-09-10T00:21:30.195Z,99.99
2015-09-10T00:21:42.617Z,99.99
2015-09-10T00:21:55.057Z,99.99
2015-09-10T00:22:07.447Z,99.99
2015-09-10T00:22:19.838Z,99.99
2015-09-10T00:22:32.228Z,99.99
2015-09-10T00:22:44.619Z,99.99
2015-09-10T00:22:57.074Z,99.99
2015-09-10T00:23:09.512Z,99.99
2015-09-10T00:23:21.902Z,99.99
2015-09-10T00:23:34.293Z,99.99
2015-09-10T00:23:46.699Z,99.99
2015-09-10T00:23:59.123Z,99.99
2015-09-10T00:24:10.811Z,99.99
2015-09-10T00:24:23.295Z,99.99
2015-09-10T00:24:35.795Z,99.99
2015-09-10T00:24:48.232Z,99.99
2015-09-10T00:25:00.656Z,99.99
2015-09-10T00:25:13.078Z,99.99
2015-09-10T00:25:25.516Z,99.99
2015-09-10T00:25:37.922Z,99.99
2015-09-10T00:25:50.313Z,99.99
2015-09-10T00:26:02.768Z,99.99
2015-09-10T00:26:14.533Z,99.99
2015-09-10T00:26:26.924Z,99.99
2015-09-10T00:26:39.330Z,99.99
2015-09-10T00:26:51.736Z,99.99
2015-09-10T00:27:04.130Z,99.99
2015-09-10T00:27:16.521Z,99.99
2015-09-10T00:27:29.021Z,99.99
2015-09-10T00:27:41.505Z,99.99
2015-09-10T00:27:53.911Z,99.99
2015-09-10T00:28:06.335Z,99.99
2015-09-10T00:28:18.804Z,99.99
2015-09-10T00:28:31.273Z,99.99
2015-09-10T00:28:43.710Z,99.99
2015-09-10T00:28:56.163Z,99.99
2015-09-10T00:29:08.555Z,99.99
2015-09-10T00:29:20.977Z,99.99
2015-09-10T00:29:33.367Z,99.99
2015-09-10T00:29:45.883Z,99.99
2015-09-10T00:29:58.369Z,99.99
2015-09-10T00:30:10.760Z,99.99
2015-09-10T00:30:23.151Z,99.99
2015-09-10T00:30:35.541Z,99.99
2015-09-10T00:30:47.948Z,99.99
2015-09-10T00:31:00.200Z,99.99
2015-09-10T00:31:12.621Z,99.99
2015-09-10T00:31:25.075Z,99.99
2015-09-10T00:31:37.543Z,99.99
2015-09-10T00:31:49.965Z,99.99
2015-09-10T00:32:02.390Z,99.99
2015-09-10T00:32:14.828Z,99.99
2015-09-10T00:32:27.249Z,99.99
2015-09-10T00:32:39.734Z,99.99
2015-09-10T00:32:52.156Z,99.99
2015-09-10T00:33:04.547Z,99.99
2015-09-10T00:33:16.954Z,99.99
2015-09-10T00:33:29.391Z,99.99
2015-09-10T00:33:41.782Z,99.99
2015-09-10T00:33:54.188Z,99.99
2015-09-10T00:34:06.581Z,99.99
2015-09-10T00:34:18.971Z,99.99
2015-09-10T00:34:31.377Z,99.99
2015-09-10T00:34:43.831Z,99.99
2015-09-10T00:34:56.237Z,99.99
2015-09-10T00:35:08.660Z,99.99
2015-09-10T00:35:21.082Z,99.99
2015-09-10T00:35:33.519Z,99.99
2015-09-10T00:35:46.066Z,99.99
2015-09-10T00:35:58.503Z,99.99
2015-09-10T00:36:10.178Z,99.99
2015-09-10T00:36:22.585Z,99.99
2015-09-10T00:36:34.975Z,99.99
2015-09-10T00:36:47.381Z,99.99
2015-09-10T00:36:59.788Z,99.99
2015-09-10T00:37:12.179Z,99.99
2015-09-10T00:37:24.570Z,99.99
2015-09-10T00:37:36.961Z,99.99
2015-09-10T00:37:49.351Z,99.99
2015-09-10T00:38:01.757Z,99.99
2015-09-10T00:38:14.151Z,99.99
2015-09-10T00:38:26.542Z,99.99
2015-09-10T00:38:39.057Z,99.99
2015-09-10T00:38:51.542Z,99.99
2015-09-10T00:39:03.932Z,99.99
2015-09-10T00:39:16.324Z,99.99
2015-09-10T00:39:28.011Z,99.99
2015-09-10T00:39:40.418Z,99.99
2015-09-10T00:39:52.855Z,99.99
2015-09-10T00:40:05.261Z,99.99
2015-09-10T00:40:17.671Z,99.99
2015-09-10T00:40:30.061Z,99.99
2015-09-10T00:40:42.468Z,99.99
2015-09-10T00:40:54.874Z,99.99
2015-09-10T00:41:07.280Z,99.99
2015-09-10T00:41:19.719Z,99.99
2015-09-10T00:41:32.140Z,99.99
2015-09-10T00:41:44.578Z,99.99
2015-09-10T00:41:57.000Z,99.99
2015-09-10T00:42:09.422Z,99.99
2015-09-10T00:42:21.925Z,99.99
2015-09-10T00:42:34.393Z,99.99
2015-09-10T00:42:46.784Z,99.99
2015-09-10T00:42:59.190Z,99.99
2015-09-10T00:43:11.597Z,99.99
2015-09-10T00:43:23.989Z,99.99
2015-09-10T00:43:36.380Z,99.99
2015-09-10T00:43:48.802Z,99.99
2015-09-10T00:44:01.192Z,99.99
2015-09-10T00:44:13.600Z,99.99
2015-09-10T00:44:26.084Z,99.99
2015-09-10T00:44:38.490Z,99.99
2015-09-10T00:44:50.912Z,99.99
2015-09-10T00:45:03.334Z,99.99
2015-09-10T00:45:15.758Z,99.99
2015-09-10T00:45:28.180Z,99.99
2015-09-10T00:45:40.727Z,99.99
2015-09-10T00:45:53.180Z,99.99
2015-09-10T00:46:05.586Z,99.99
2015-09-10T00:46:17.994Z,99.99
2015-09-10T00:46:30.385Z,99.99
2015-09-10T00:46:42.775Z,99.99
2015-09-10T00:46:55.182Z,99.99
2015-09-10T00:47:07.572Z,99.99
2015-09-10T00:47:20.013Z,99.99
2015-09-10T00:47:32.419Z,99.99
2015-09-10T00:47:44.810Z,99.99
2015-09-10T00:47:57.232Z,99.99
2015-09-10T00:48:09.638Z,99.99
2015-09-10T00:48:22.045Z,99.99
2015-09-10T00:48:34.467Z,99.99
2015-09-10T00:48:46.904Z,99.99
2015-09-10T00:48:59.326Z,99.99
2015-09-10T00:49:11.748Z,99.99
2015-09-10T00:49:24.172Z,99.99
2015-09-10T00:49:36.625Z,99.99
2015-09-10T00:49:49.016Z,99.99
2015-09-10T00:50:01.422Z,99.99
2015-09-10T00:50:13.813Z,99.99
2015-09-10T00:50:26.206Z,99.99
2015-09-10T00:50:38.441Z,99.99
2015-09-10T00:50:50.972Z,99.99
2015-09-10T00:51:03.425Z,99.99
2015-09-10T00:51:15.863Z,99.99
2015-09-10T00:51:28.255Z,99.99
2015-09-10T00:51:40.677Z,99.99
2015-09-10T00:51:53.099Z,99.99
2015-09-10T00:52:05.505Z,99.99
2015-09-10T00:52:17.911Z,99.99
2015-09-10T00:52:30.350Z,99.99
2015-09-10T00:52:42.772Z,99.99
2015-09-10T00:52:55.194Z,99.99
2015-09-10T00:53:07.616Z,99.99
2015-09-10T00:53:20.022Z,99.99
2015-09-10T00:53:32.414Z,99.99
2015-09-10T00:53:44.805Z,99.99
2015-09-10T00:53:57.305Z,99.99
2015-09-10T00:54:09.743Z,99.99
2015-09-10T00:54:22.008Z,99.99
2015-09-10T00:54:34.432Z,99.99
2015-09-10T00:54:46.823Z,99.99
2015-09-10T00:54:59.213Z,99.99
2015-09-10T00:55:11.620Z,99.99
2015-09-10T00:55:24.026Z,99.99
2015-09-10T00:55:36.434Z,99.99
2015-09-10T00:55:48.872Z,99.99
2015-09-10T00:56:01.309Z,99.99
2015-09-10T00:56:13.731Z,99.99
2015-09-10T00:56:26.153Z,99.99
2015-09-10T00:56:38.577Z,99.99
2015-09-10T00:56:51.045Z,99.99
2015-09-10T00:57:03.499Z,99.99
2015-09-10T00:57:15.905Z,99.99
2015-09-10T00:57:28.295Z,99.99
2015-09-10T00:57:40.704Z,99.99
2015-09-10T00:57:53.094Z,99.99
2015-09-10T00:58:05.563Z,99.99
2015-09-10T00:58:18.001Z,99.99
2015-09-10T00:58:30.407Z,99.99
2015-09-10T00:58:42.799Z,99.99
2015-09-10T00:58:55.206Z,99.99
2015-09-10T00:59:07.612Z,99.99
2015-09-10T00:59:20.034Z,99.99
2015-09-10T00:59:32.456Z,99.99
2015-09-10T00:59:44.880Z,99.99
2015-09-10T00:59:57.317Z,99.99
2015-09-10T01:00:09.755Z,99.99
2015-09-10T01:00:22.192Z,99.99
2015-09-10T01:00:34.678Z,99.99
2015-09-10T01:00:47.085Z,99.99
2015-09-10T01:00:59.475Z,99.99
2015-09-10T01:01:11.897Z,99.99
2015-09-10T01:01:24.303Z,99.99
2015-09-10T01:01:36.696Z,99.99
2015-09-10T01:01:49.102Z,99.99
2015-09-10T01:02:01.524Z,99.99
2015-09-10T01:02:13.930Z,99.99
2015-09-10T01:02:26.321Z,99.99
2015-09-10T01:02:38.760Z,99.99
2015-09-10T01:02:51.197Z,99.99
2015-09-10T01:03:03.588Z,99.99
2015-09-10T01:03:15.853Z,99.99
2015-09-10T01:03:28.275Z,99.99
2015-09-10T01:03:40.683Z,99.99
2015-09-10T01:03:53.105Z,99.99
2015-09-10T01:04:05.590Z,99.99
2015-09-10T01:04:17.980Z,99.99
2015-09-10T01:04:30.371Z,99.99
2015-09-10T01:04:42.843Z,99.99
2015-09-10T01:04:55.296Z,99.99
2015-09-10T01:05:07.686Z,99.99
2015-09-10T01:05:20.077Z,99.99
2015-09-10T01:05:32.483Z,99.99
2015-09-10T01:05:44.892Z,99.99
2015-09-10T01:05:57.298Z,99.99
2015-09-10T01:06:09.829Z,99.99
2015-09-10T01:06:22.235Z,99.99
2015-09-10T01:06:34.673Z,99.99
2015-09-10T01:06:47.080Z,99.99
2015-09-10T01:06:59.502Z,99.99
2015-09-10T01:07:11.924Z,99.99
2015-09-10T01:07:24.346Z,99.99
2015-09-10T01:07:36.799Z,99.99
2015-09-10T01:07:49.302Z,99.99
2015-09-10T01:08:01.739Z,99.99
2015-09-10T01:08:14.130Z,99.99
2015-09-10T01:08:26.536Z,99.99
2015-09-10T01:08:38.927Z,99.99
2015-09-10T01:08:51.335Z,99.99
2015-09-10T01:09:03.773Z,99.99
2015-09-10T01:09:16.304Z,99.99
2015-09-10T01:09:28.694Z,99.99
2015-09-10T01:09:41.101Z,99.99
2015-09-10T01:09:53.508Z,99.99
2015-09-10T01:10:05.961Z,99.99
2015-09-10T01:10:18.430Z,99.99
2015-09-10T01:10:30.852Z,99.99
2015-09-10T01:10:43.274Z,99.99
2015-09-10T01:10:55.713Z,99.99
2015-09-10T01:11:08.135Z,99.99
2015-09-10T01:11:20.557Z,99.99
2015-09-10T01:11:33.010Z,99.99
2015-09-10T01:11:45.401Z,99.99
2015-09-10T01:11:57.793Z,99.99
2015-09-10T01:12:10.199Z,99.99
2015-09-10T01:12:22.606Z,99.99
2015-09-10T01:12:34.996Z,99.99
2015-09-10T01:12:47.387Z,99.99
2015-09-10T01:12:59.826Z,99.99
2015-09-10T01:13:12.295Z,99.99
2015-09-10T01:13:24.717Z,99.99
2015-09-10T01:13:37.108Z,99.99
2015-09-10T01:13:49.532Z,99.99
2015-09-10T01:14:01.953Z,99.99
2015-09-10T01:14:14.375Z,99.99
2015-09-10T01:14:26.922Z,99.99
2015-09-10T01:14:39.360Z,99.99
2015-09-10T01:14:51.769Z,99.99
2015-09-10T01:15:04.175Z,99.99
2015-09-10T01:15:16.566Z,99.99
2015-09-10T01:15:28.800Z,99.99
2015-09-10T01:15:41.206Z,99.99
2015-09-10T01:15:53.614Z,99.99
2015-09-10T01:16:06.004Z,99.99
2015-09-10T01:16:18.426Z,99.99
2015-09-10T01:16:30.895Z,99.99
2015-09-10T01:16:43.301Z,99.99
2015-09-10T01:16:55.710Z,99.99
2015-09-10T01:17:08.117Z,99.99
2015-09-10T01:17:20.507Z,99.99
2015-09-10T01:17:32.960Z,99.99
2015-09-10T01:17:45.414Z,99.99
2015-09-10T01:17:57.899Z,99.99
2015-09-10T01:18:10.321Z,99.99
2015-09-10T01:18:22.743Z,99.99
2015-09-10T01:18:35.133Z,99.99
2015-09-10T01:18:47.540Z,99.99
2015-09-10T01:19:00.010Z,99.99
2015-09-10T01:19:12.401Z,99.99
2015-09-10T01:19:24.792Z,99.99
2015-09-10T01:19:37.167Z,99.99
2015-09-10T01:19:49.573Z,99.99
2015-09-10T01:20:01.997Z,99.99
2015-09-10T01:20:14.403Z,99.99
2015-09-10T01:20:26.825Z,99.99
2015-09-10T01:20:39.262Z,99.99
2015-09-10T01:20:51.684Z,99.99
2015-09-10T01:21:04.108Z,99.99
2015-09-10T01:21:15.827Z,99.99
2015-09-10T01:21:28.249Z,99.99
2015-09-10T01:21:40.686Z,99.99
2015-09-10T01:21:53.124Z,99.99
2015-09-10T01:22:05.594Z,99.99
2015-09-10T01:22:18.001Z,99.99
2015-09-10T01:22:30.391Z,99.99
2015-09-10T01:22:42.798Z,99.99
2015-09-10T01:22:55.188Z,99.99
2015-09-10T01:23:07.581Z,99.99
2015-09-10T01:23:19.987Z,99.99
2015-09-10T01:23:32.378Z,99.99
2015-09-10T01:23:44.768Z,99.99
2015-09-10T01:23:57.190Z,99.99
2015-09-10T01:24:09.598Z,99.99
2015-09-10T01:24:22.005Z,99.99
2015-09-10T01:24:34.411Z,99.99
2015-09-10T01:24:46.130Z,99.99
2015-09-10T01:24:58.614Z,99.99
2015-09-10T01:25:11.054Z,99.99
2015-09-10T01:25:23.475Z,99.99
2015-09-10T01:25:35.866Z,99.99
2015-09-10T01:25:47.554Z,99.99
2015-09-10T01:25:59.944Z,99.99
2015-09-10T01:26:12.352Z,99.99
2015-09-10T01:26:24.743Z,99.99
2015-09-10T01:26:37.134Z,99.99
2015-09-10T01:26:49.602Z,99.99
2015-09-10T01:27:02.071Z,99.99
2015-09-10T01:27:14.478Z,99.99
2015-09-10T01:27:26.885Z,99.99
2015-09-10T01:27:39.291Z,99.99
2015-09-10T01:27:51.713Z,99.99
2015-09-10T01:28:04.119Z,99.99
2015-09-10T01:28:16.575Z,99.99
2015-09-10T01:28:29.013Z,99.99
2015-09-10T01:28:41.435Z,99.99
2015-09-10T01:28:53.841Z,99.99
2015-09-10T01:29:06.231Z,99.99
2015-09-10T01:29:18.718Z,99.99
2015-09-10T01:29:31.171Z,99.99
2015-09-10T01:29:43.562Z,99.99
2015-09-10T01:29:55.952Z,99.99
2015-09-10T01:30:08.358Z,99.99
2015-09-10T01:30:20.767Z,99.99
2015-09-10T01:30:33.157Z,99.99
2015-09-10T01:30:45.564Z,99.99
2015-09-10T01:30:57.970Z,99.99
2015-09-10T01:31:09.673Z,99.99
2015-09-10T01:31:22.081Z,99.99
2015-09-10T01:31:34.519Z,99.99
2015-09-10T01:31:46.941Z,99.99
2015-09-10T01:31:59.378Z,99.99
2015-09-10T01:32:11.784Z,99.99
2015-09-10T01:32:24.177Z,99.99
2015-09-10T01:32:36.583Z,99.99
2015-09-10T01:32:48.989Z,99.99
2015-09-10T01:33:01.380Z,99.99
2015-09-10T01:33:13.786Z,99.99
2015-09-10T01:33:26.178Z,99.99
2015-09-10T01:33:38.647Z,99.99
2015-09-10T01:33:51.069Z,99.99
2015-09-10T01:34:03.459Z,99.99
2015-09-10T01:34:15.865Z,99.99
2015-09-10T01:34:28.336Z,99.99
2015-09-10T01:34:40.789Z,99.99
2015-09-10T01:34:53.211Z,99.99
2015-09-10T01:35:05.649Z,99.99
2015-09-10T01:35:18.086Z,99.99
2015-09-10T01:35:30.542Z,99.99
2015-09-10T01:35:42.964Z,99.99
2015-09-10T01:35:55.464Z,99.99
2015-09-10T01:36:07.855Z,99.99
2015-09-10T01:36:20.246Z,99.99
2015-09-10T01:36:32.731Z,99.99
2015-09-10T01:36:45.121Z,99.99
2015-09-10T01:36:57.528Z,99.99
2015-09-10T01:37:09.934Z,99.99
2015-09-10T01:37:22.327Z,99.99
2015-09-10T01:37:34.717Z,99.99
2015-09-10T01:37:47.295Z,99.99
2015-09-10T01:37:59.764Z,99.99
2015-09-10T01:38:12.155Z,99.99
2015-09-10T01:38:24.580Z,99.99
2015-09-10T01:38:37.017Z,99.99
2015-09-10T01:38:49.439Z,99.99
2015-09-10T01:39:01.876Z,99.99
2015-09-10T01:39:14.298Z,99.99
2015-09-10T01:39:26.738Z,99.99
2015-09-10T01:39:39.160Z,99.99
2015-09-10T01:39:51.550Z,99.99
2015-09-10T01:40:03.957Z,99.99
2015-09-10T01:40:16.347Z,99.99
2015-09-10T01:40:28.739Z,99.99
2015-09-10T01:40:41.145Z,99.99
2015-09-10T01:40:53.598Z,99.99
2015-09-10T01:41:05.989Z,99.99
2015-09-10T01:41:18.395Z,99.99
2015-09-10T01:41:30.804Z,99.99
2015-09-10T01:41:43.211Z,99.99
2015-09-10T01:41:55.617Z,99.99
2015-09-10T01:42:08.054Z,99.99
2015-09-10T01:42:20.476Z,99.99
2015-09-10T01:42:33.118Z,99.99
2015-09-10T01:42:45.540Z,99.99
2015-09-10T01:42:57.930Z,99.99
2015-09-10T01:43:10.321Z,99.99
2015-09-10T01:43:22.727Z,99.99
2015-09-10T01:43:35.135Z,99.99
2015-09-10T01:43:47.542Z,99.99
2015-09-10T01:43:59.964Z,99.99
2015-09-10T01:44:12.385Z,99.99
2015-09-10T01:44:24.776Z,99.99
2015-09-10T01:44:37.170Z,99.99
2015-09-10T01:44:49.592Z,99.99
2015-09-10T01:45:01.998Z,99.99
2015-09-10T01:45:14.404Z,99.99
2015-09-10T01:45:26.857Z,99.99
2015-09-10T01:45:39.405Z,99.99
2015-09-10T01:45:51.827Z,99.99
2015-09-10T01:46:04.218Z,99.99
2015-09-10T01:46:16.608Z,99.99
2015-09-10T01:46:28.296Z,99.99
2015-09-10T01:46:40.688Z,99.99
2015-09-10T01:46:53.173Z,99.99
2015-09-10T01:47:05.610Z,99.99
2015-09-10T01:47:18.016Z,99.99
2015-09-10T01:47:30.438Z,99.99
2015-09-10T01:47:42.222Z,99.99
2015-09-10T01:47:54.628Z,99.99
2015-09-10T01:48:07.034Z,99.99
2015-09-10T01:48:19.440Z,99.99
2015-09-10T01:48:31.862Z,99.99
2015-09-10T01:48:44.302Z,99.99
2015-09-10T01:48:56.755Z,99.99
2015-09-10T01:49:09.177Z,99.99
2015-09-10T01:49:21.614Z,99.99
2015-09-10T01:49:34.022Z,99.99
2015-09-10T01:49:46.444Z,99.99
2015-09-10T01:49:58.897Z,99.99
2015-09-10T01:50:11.288Z,99.99
2015-09-10T01:50:23.554Z,99.99
2015-09-10T01:50:35.992Z,99.99
2015-09-10T01:50:48.383Z,99.99
2015-09-10T01:51:00.867Z,99.99
2015-09-10T01:51:13.383Z,99.99
2015-09-10T01:51:25.086Z,99.99
2015-09-10T01:51:37.494Z,99.99
2015-09-10T01:51:49.900Z,99.99
2015-09-10T01:52:02.322Z,99.99
2015-09-10T01:52:14.744Z,99.99
2015-09-10T01:52:27.182Z,99.99
2015-09-10T01:52:39.685Z,99.99
2015-09-10T01:52:52.153Z,99.99
2015-09-10T01:53:04.544Z,99.99
2015-09-10T01:53:16.950Z,99.99
2015-09-10T01:53:29.341Z,99.99
2015-09-10T01:53:41.748Z,99.99
2015-09-10T01:53:54.139Z,99.99
2015-09-10T01:54:06.545Z,99.99
2015-09-10T01:54:18.951Z,99.99
2015-09-10T01:54:31.342Z,99.99
2015-09-10T01:54:43.735Z,99.99
2015-09-10T01:54:56.172Z,99.99
2015-09-10T01:55:08.578Z,99.99
2015-09-10T01:55:21.047Z,99.99
2015-09-10T01:55:33.453Z,99.99
2015-09-10T01:55:45.893Z,99.99
2015-09-10T01:55:58.346Z,99.99
2015-09-10T01:56:10.737Z,99.99
2015-09-10T01:56:23.127Z,99.99
2015-09-10T01:56:35.533Z,99.99
2015-09-10T01:56:47.927Z,99.99
2015-09-10T01:57:00.318Z,99.99
2015-09-10T01:57:12.708Z,99.99
2015-09-10T01:57:24.396Z,99.99
2015-09-10T01:57:36.786Z,99.99
2015-09-10T01:57:49.179Z,99.99
2015-09-10T01:58:01.601Z,99.99
2015-09-10T01:58:14.007Z,99.99
2015-09-10T01:58:26.429Z,99.99
2015-09-10T01:58:38.882Z,99.99
2015-09-10T01:58:51.306Z,99.99
2015-09-10T01:59:03.712Z,99.99
2015-09-10T01:59:16.087Z,99.99
2015-09-10T01:59:28.478Z,99.99
2015-09-10T01:59:40.900Z,99.99
2015-09-10T01:59:53.371Z,99.99
2015-09-10T02:00:05.761Z,99.99
2015-09-10T02:00:18.167Z,99.99
2015-09-10T02:00:30.558Z,99.99
2015-09-10T02:00:42.949Z,99.99
2015-09-10T02:00:55.341Z,99.99
2015-09-10T02:01:07.029Z,99.99
2015-09-10T02:01:19.560Z,99.99
2015-09-10T02:01:31.998Z,99.99
2015-09-10T02:01:44.419Z,99.99
2015-09-10T02:01:56.843Z,99.99
2015-09-10T02:02:09.265Z,99.99
2015-09-10T02:02:21.718Z,99.99
2015-09-10T02:02:34.187Z,99.99
2015-09-10T02:02:46.609Z,99.99
2015-09-10T02:02:59.016Z,99.99
2015-09-10T02:03:11.422Z,99.99
2015-09-10T02:03:23.813Z,99.99
2015-09-10T02:03:36.219Z,99.99
2015-09-10T02:03:48.613Z,99.99
2015-09-10T02:04:01.066Z,99.99
2015-09-10T02:04:13.550Z,99.84
2015-09-10T02:04:25.957Z,99.75
2015-09-10T02:04:38.363Z,99.75
2015-09-10T02:04:50.770Z,99.99
2015-09-10T02:05:02.473Z,99.75
2015-09-10T02:05:14.926Z,99.46
2015-09-10T02:05:27.411Z,99.65
2015-09-10T02:05:39.833Z,99.94
2015-09-10T02:05:52.272Z,99.65
2015-09-10T02:06:04.663Z,99.56
2015-09-10T02:06:17.053Z,99.94
2015-09-10T02:06:29.460Z,99.75
2015-09-10T02:06:41.850Z,99.99
2015-09-10T02:06:54.243Z,99.94
2015-09-10T02:07:06.649Z,99.99
2015-09-10T02:07:19.055Z,99.65
2015-09-10T02:07:31.446Z,99.65
2015-09-10T02:07:43.868Z,99.75
2015-09-10T02:07:56.276Z,99.37
2015-09-10T02:08:08.698Z,99.08
2015-09-10T02:08:21.120Z,98.61
2015-09-10T02:08:33.542Z,98.71
2015-09-10T02:08:45.964Z,97.96
2015-09-10T02:08:58.388Z,97.67
2015-09-10T02:09:10.841Z,97.77
2015-09-10T02:09:23.278Z,97.77
2015-09-10T02:09:35.669Z,97.58
2015-09-10T02:09:48.059Z,97.39
2015-09-10T02:10:00.437Z,96.82
2015-09-10T02:10:12.812Z,97.2
2015-09-10T02:10:25.187Z,96.44
2015-09-10T02:10:37.562Z,96.25
2015-09-10T02:10:49.953Z,96.16
2015-09-10T02:11:02.345Z,96.63
2015-09-10T02:11:14.079Z,96.91
2015-09-10T02:11:26.548Z,97.29
2015-09-10T02:11:38.954Z,97.67
2015-09-10T02:11:51.360Z,97.58
2015-09-10T02:12:03.800Z,98.61
2015-09-10T02:12:16.222Z,98.9
2015-09-10T02:12:28.659Z,99.18
2015-09-10T02:12:41.081Z,99.94
2015-09-10T02:12:52.800Z,99.84
2015-09-10T02:13:05.192Z,99.99
2015-09-10T02:13:17.567Z,99.99
2015-09-10T02:13:30.021Z,99.99
2015-09-10T02:13:42.427Z,99.99
2015-09-10T02:13:54.802Z,99.99
2015-09-10T02:14:07.179Z,99.99
2015-09-10T02:14:19.569Z,99.99
2015-09-10T02:14:31.960Z,99.99
2015-09-10T02:14:44.366Z,99.99
2015-09-10T02:14:56.851Z,99.99
2015-09-10T02:15:09.258Z,99.99
2015-09-10T02:15:21.695Z,99.99
2015-09-10T02:15:34.086Z,99.99
2015-09-10T02:15:46.524Z,99.99
2015-09-10T02:15:58.945Z,99.99
2015-09-10T02:16:11.355Z,99.99
2015-09-10T02:16:23.777Z,99.99
2015-09-10T02:16:36.230Z,99.99
2015-09-10T02:16:48.620Z,99.99
2015-09-10T02:17:01.011Z,99.99
2015-09-10T02:17:13.419Z,99.99
2015-09-10T02:17:25.825Z,99.99
2015-09-10T02:17:38.216Z,99.99
2015-09-10T02:17:50.654Z,99.99
2015-09-10T02:18:03.122Z,99.99
2015-09-10T02:18:15.530Z,99.99
2015-09-10T02:18:27.936Z,99.99
2015-09-10T02:18:40.358Z,99.99
2015-09-10T02:18:52.780Z,99.99
2015-09-10T02:19:05.217Z,99.99
2015-09-10T02:19:17.658Z,99.99
2015-09-10T02:19:30.079Z,99.99
2015-09-10T02:19:42.564Z,99.99
2015-09-10T02:19:55.064Z,99.99
2015-09-10T02:20:06.751Z,99.99
2015-09-10T02:20:19.159Z,99.99
2015-09-10T02:20:31.580Z,99.99
2015-09-10T02:20:43.971Z,99.99
2015-09-10T02:20:56.377Z,99.99
2015-09-10T02:21:08.784Z,99.99
2015-09-10T02:21:21.177Z,99.99
2015-09-10T02:21:33.583Z,99.99
2015-09-10T02:21:46.005Z,99.99
2015-09-10T02:21:58.412Z,99.99
2015-09-10T02:22:10.849Z,99.99
2015-09-10T02:22:22.647Z,99.99
2015-09-10T02:22:35.069Z,99.99
2015-09-10T02:22:47.491Z,99.99
2015-09-10T02:22:59.913Z,99.99
2015-09-10T02:23:12.303Z,99.99
2015-09-10T02:23:24.727Z,99.99
2015-09-10T02:23:37.196Z,99.99
2015-09-10T02:23:49.586Z,99.99
2015-09-10T02:24:01.274Z,99.99
2015-09-10T02:24:13.680Z,99.99
2015-09-10T02:24:26.105Z,99.99
2015-09-10T02:24:38.511Z,99.99
2015-09-10T02:24:50.918Z,99.99
2015-09-10T02:25:03.324Z,99.99
2015-09-10T02:25:15.746Z,99.99
2015-09-10T02:25:28.154Z,99.99
2015-09-10T02:25:40.607Z,99.99
2015-09-10T02:25:53.045Z,99.99
2015-09-10T02:26:05.482Z,99.99
2015-09-10T02:26:17.874Z,99.99
2015-09-10T02:26:30.280Z,99.99
2015-09-10T02:26:42.671Z,99.99
2015-09-10T02:26:54.936Z,99.99
2015-09-10T02:27:07.342Z,99.99
2015-09-10T02:27:19.752Z,99.99
2015-09-10T02:27:32.142Z,99.99
2015-09-10T02:27:44.533Z,99.99
2015-09-10T02:27:56.939Z,99.99
2015-09-10T02:28:08.674Z,99.99
2015-09-10T02:28:21.113Z,99.99
2015-09-10T02:28:33.504Z,99.99
2015-09-10T02:28:45.926Z,99.99
2015-09-10T02:28:58.207Z,99.99
2015-09-10T02:29:10.629Z,99.99
2015-09-10T02:29:23.067Z,99.99
2015-09-10T02:29:35.333Z,99.99
2015-09-10T02:29:47.770Z,99.99
2015-09-10T02:30:00.177Z,99.99
2015-09-10T02:30:12.583Z,99.99
2015-09-10T02:30:24.976Z,99.99
2015-09-10T02:30:37.383Z,99.99
2015-09-10T02:30:49.773Z,99.99
2015-09-10T02:31:02.180Z,99.99
2015-09-10T02:31:14.570Z,99.99
2015-09-10T02:31:26.993Z,99.99
2015-09-10T02:31:39.415Z,99.99
2015-09-10T02:31:51.821Z,99.99
2015-09-10T02:32:04.243Z,99.99
2015-09-10T02:32:16.634Z,99.99
2015-09-10T02:32:29.073Z,99.99
2015-09-10T02:32:41.511Z,99.99
2015-09-10T02:32:53.964Z,99.99
2015-09-10T02:33:06.433Z,99.99
2015-09-10T02:33:18.854Z,99.99
2015-09-10T02:33:31.247Z,99.99
2015-09-10T02:33:43.638Z,99.99
2015-09-10T02:33:56.060Z,99.99
2015-09-10T02:34:08.466Z,99.99
2015-09-10T02:34:20.919Z,99.99
2015-09-10T02:34:33.358Z,99.99
2015-09-10T02:34:45.780Z,99.99
2015-09-10T02:34:58.171Z,99.99
2015-09-10T02:35:10.624Z,99.99
2015-09-10T02:35:23.077Z,99.99
2015-09-10T02:35:35.517Z,99.99
2015-09-10T02:35:47.923Z,99.99
2015-09-10T02:36:00.360Z,99.99
2015-09-10T02:36:12.782Z,99.99
2015-09-10T02:36:25.204Z,99.99
2015-09-10T02:36:37.659Z,99.99
2015-09-10T02:36:50.066Z,99.99
2015-09-10T02:37:02.456Z,99.99
2015-09-10T02:37:14.847Z,99.99
2015-09-10T02:37:27.237Z,99.99
2015-09-10T02:37:39.646Z,99.99
2015-09-10T02:37:52.036Z,99.99
2015-09-10T02:38:04.443Z,99.99
2015-09-10T02:38:16.833Z,99.99
2015-09-10T02:38:29.255Z,99.99
2015-09-10T02:38:41.648Z,99.99
2015-09-10T02:38:54.038Z,99.99
2015-09-10T02:39:06.429Z,99.99
2015-09-10T02:39:18.835Z,99.99
2015-09-10T02:39:31.257Z,99.99